createdAt,value
2022-11-18T00:01:31.076Z,97256.69
2022-11-18T00:03:59.674Z,97247.53
2022-11-18T00:06:30.851Z,97240.72
2022-11-18T00:09:00.703Z,97232.66
2022-11-18T00:11:47.341Z,97237.09
2022-11-18T00:14:21.371Z,97237.34
2022-11-18T00:16:52.310Z,97233.38
2022-11-18T00:19:21.553Z,97238.03
2022-11-18T00:21:51.805Z,97245.63
2022-11-18T00:24:20.631Z,97233.16
2022-11-18T00:26:49.714Z,97232.03
2022-11-18T00:29:18.715Z,97232.03
2022-11-18T00:31:47.904Z,97232.03
2022-11-18T00:34:18.113Z,97232.59
2022-11-18T00:36:47.467Z,97234.41
2022-11-18T00:39:19.946Z,97244.59
2022-11-18T00:42:06.754Z,97235.75
2022-11-18T00:44:35.661Z,97239.13
2022-11-18T00:47:04.354Z,97243.81
2022-11-18T00:49:32.984Z,97246.09
2022-11-18T00:52:02.118Z,97252.84
2022-11-18T00:54:32.095Z,97255.44
2022-11-18T00:57:00.800Z,97251.50
2022-11-18T00:59:29.416Z,97246.28
2022-11-18T01:01:58.234Z,97245.81
2022-11-18T01:04:26.833Z,97256.22
2022-11-18T01:06:55.581Z,97252.28
2022-11-18T01:09:24.219Z,97254.97
2022-11-18T01:12:11.744Z,97253.06
2022-11-18T01:14:40.393Z,97254.88
2022-11-18T01:17:08.972Z,97256.22
2022-11-18T01:19:37.640Z,97249.13
2022-11-18T01:22:06.478Z,97256.22
2022-11-18T01:24:35.445Z,97247.84
2022-11-18T01:27:05.515Z,97251.03
2022-11-18T01:29:34.178Z,97255.75
2022-11-18T01:32:23.883Z,97265.94
2022-11-18T01:34:51.432Z,97257.25
2022-11-18T01:37:20.083Z,97255.13
2022-11-18T01:39:48.701Z,97255.13
2022-11-18T01:42:18.929Z,97264.44
2022-11-18T01:45:21.217Z,97263.34
2022-11-18T01:47:51.209Z,97259.47
2022-11-18T01:50:21.464Z,97271.25
2022-11-18T01:52:51.895Z,97270.69
2022-11-18T01:55:25.019Z,97274.88
2022-11-18T01:57:59.709Z,97274.09
2022-11-18T02:00:28.384Z,97273.78
2022-11-18T02:02:57.748Z,97279.53
2022-11-18T02:05:27.174Z,97277.72
2022-11-18T02:07:56.228Z,97281.34
2022-11-18T02:10:25.985Z,97281.34
2022-11-18T02:12:56.385Z,97294.84
2022-11-18T02:15:36.159Z,97283.19
2022-11-18T02:18:10.470Z,97293.69
2022-11-18T02:20:41.152Z,97292.34
2022-11-18T02:23:54.185Z,97298.91
2022-11-18T02:27:04.739Z,97294.56
2022-11-18T02:29:38.542Z,97289.59
2022-11-18T02:32:11.481Z,97292.72
2022-11-18T02:34:42.320Z,97289.16
2022-11-18T02:37:18.073Z,97288.28
2022-11-18T02:39:50.225Z,97290.91
2022-11-18T02:42:19.113Z,97291.13
2022-11-18T02:44:53.844Z,97294.78
2022-11-18T02:47:23.400Z,97292.41
2022-11-18T02:49:55.109Z,97289.59
2022-11-18T02:52:24.424Z,97291.63
2022-11-18T02:54:53.606Z,97290.03
2022-11-18T02:57:22.582Z,97294.47
2022-11-18T02:59:52.536Z,97295.25
2022-11-18T03:02:21.536Z,97298.66
2022-11-18T03:04:52.956Z,97297.41
2022-11-18T03:07:24.606Z,97302.03
2022-11-18T03:09:53.810Z,97316.91
2022-11-18T03:12:28.713Z,97316.19
2022-11-18T03:15:04.517Z,97316.41
2022-11-18T03:17:42.324Z,97324.47
2022-11-18T03:20:16.535Z,97325.00
2022-11-18T03:22:49.017Z,97327.31
2022-11-18T03:25:22.836Z,97330.16
2022-11-18T03:27:55.097Z,97334.81
2022-11-18T03:30:26.149Z,97337.09
2022-11-18T03:32:58.116Z,97351.38
2022-11-18T03:35:28.998Z,97354.78
2022-11-18T03:38:01.559Z,97364.72
2022-11-18T03:40:32.655Z,97357.00
2022-11-18T03:43:05.304Z,97364.81
2022-11-18T03:45:38.453Z,97370.25
2022-11-18T03:48:12.119Z,97376.72
2022-11-18T03:50:44.399Z,97380.09
2022-11-18T03:53:13.893Z,97384.00
2022-11-18T03:55:46.281Z,97384.78
2022-11-18T03:58:18.489Z,97388.97
2022-11-18T04:00:50.194Z,97387.13
2022-11-18T04:03:18.842Z,97387.63
2022-11-18T04:05:50.854Z,97395.97
2022-11-18T04:08:22.908Z,97393.94
2022-11-18T04:10:56.596Z,97397.78
2022-11-18T04:13:27.101Z,97400.06
2022-11-18T04:15:57.132Z,97402.91
2022-11-18T04:18:25.767Z,97407.88
2022-11-18T04:20:54.613Z,97407.09
2022-11-18T04:23:23.224Z,97406.88
2022-11-18T04:25:51.921Z,97414.44
2022-11-18T04:28:20.557Z,97410.81
2022-11-18T04:30:50.894Z,97420.69
2022-11-18T04:33:20.872Z,97413.09
2022-11-18T04:35:49.468Z,97418.09
2022-11-18T04:38:21.900Z,97424.38
2022-11-18T04:40:50.765Z,97435.75
2022-11-18T04:43:19.349Z,97439.06
2022-11-18T04:45:47.970Z,97440.66
2022-11-18T04:48:16.918Z,97443.25
2022-11-18T04:50:46.887Z,97443.69
2022-11-18T04:53:15.475Z,97446.09
2022-11-18T04:55:44.074Z,97447.13
2022-11-18T04:58:12.759Z,97444.75
2022-11-18T05:00:41.370Z,97441.03
2022-11-18T05:03:09.947Z,97450.88
2022-11-18T05:05:38.560Z,97450.63
2022-11-18T05:08:08.549Z,97451.03
2022-11-18T05:10:39.230Z,97450.38
2022-11-18T05:13:06.834Z,97450.69
2022-11-18T05:15:35.453Z,97460.63
2022-11-18T05:18:04.202Z,97458.72
2022-11-18T05:20:35.147Z,97462.91
2022-11-18T05:23:08.728Z,97465.53
2022-11-18T05:25:37.403Z,97464.47
2022-11-18T05:28:06.142Z,97467.78
2022-11-18T05:30:34.739Z,97469.25
2022-11-18T05:33:03.325Z,97476.84
2022-11-18T05:35:31.974Z,97479.91
2022-11-18T05:38:02.450Z,97475.88
2022-11-18T05:40:32.431Z,97477.09
2022-11-18T05:43:12.208Z,97481.53
2022-11-18T05:45:41.281Z,97482.78
2022-11-18T05:48:10.150Z,97489.22
2022-11-18T05:50:39.719Z,97488.69
2022-11-18T05:53:08.340Z,97496.50
2022-11-18T05:55:41.863Z,97492.53
2022-11-18T05:58:10.462Z,97500.09
2022-11-18T06:00:39.078Z,97508.47
2022-11-18T06:03:10.257Z,97504.28
2022-11-18T06:05:39.238Z,97503.47
2022-11-18T06:08:09.864Z,97502.94
2022-11-18T06:10:41.803Z,97506.53
2022-11-18T06:13:16.325Z,97501.34
2022-11-18T06:15:46.038Z,97513.00
2022-11-18T06:18:19.382Z,97512.44
2022-11-18T06:20:48.282Z,97510.41
2022-11-18T06:23:17.397Z,97516.97
2022-11-18T06:25:47.761Z,97520.03
2022-11-18T06:28:17.041Z,97521.63
2022-11-18T06:30:45.684Z,97526.59
2022-11-18T06:33:14.322Z,97521.50
2022-11-18T06:35:43.594Z,97537.09
2022-11-18T06:38:12.457Z,97534.50
2022-11-18T06:40:44.659Z,97538.56
2022-11-18T06:43:32.244Z,97539.16
2022-11-18T06:46:18.890Z,97539.72
2022-11-18T06:48:47.621Z,97548.66
2022-11-18T06:51:16.495Z,97551.47
2022-11-18T06:53:45.257Z,97553.97
2022-11-18T06:56:16.182Z,97556.78
2022-11-18T06:58:46.608Z,97549.09
2022-11-18T07:01:16.695Z,97552.50
2022-11-18T07:03:46.695Z,97557.91
2022-11-18T07:06:18.269Z,97566.63
2022-11-18T07:08:47.057Z,97569.69
2022-11-18T07:11:17.746Z,97567.88
2022-11-18T07:13:48.183Z,97573.88
2022-11-18T07:16:18.349Z,97569.25
2022-11-18T07:18:48.009Z,97572.19
2022-11-18T07:21:18.458Z,97580.56
2022-11-18T07:23:47.631Z,97585.31
2022-11-18T07:26:17.349Z,97590.03
2022-11-18T07:28:47.384Z,97590.63
2022-11-18T07:31:17.729Z,97595.94
2022-11-18T07:33:47.061Z,97591.06
2022-11-18T07:36:17.636Z,97594.00
2022-11-18T07:38:46.366Z,97600.72
2022-11-18T07:41:16.652Z,97607.59
2022-11-18T07:43:47.474Z,97610.44
2022-11-18T07:46:18.323Z,97609.06
2022-11-18T07:48:48.749Z,97607.59
2022-11-18T07:51:19.700Z,97615.41
2022-11-18T07:53:48.700Z,97611.88
2022-11-18T07:56:17.745Z,97604.88
2022-11-18T07:58:47.954Z,97614.38
2022-11-18T08:01:18.360Z,97610.41
2022-11-18T08:03:47.902Z,97611.53
2022-11-18T08:06:17.918Z,97613.91
2022-11-18T08:08:47.193Z,97618.91
2022-11-18T08:11:22.181Z,97632.94
2022-11-18T08:13:53.142Z,97643.34
2022-11-18T08:16:23.475Z,97639.97
2022-11-18T08:18:52.572Z,97647.53
2022-11-18T08:21:22.703Z,97653.09
2022-11-18T08:23:52.539Z,97662.28
2022-11-18T08:26:21.966Z,97660.56
2022-11-18T08:28:52.182Z,97668.84
2022-11-18T08:31:24.291Z,97662.84
2022-11-18T08:33:55.616Z,97668.84
2022-11-18T08:36:26.866Z,97681.06
2022-11-18T08:38:56.560Z,97676.19
2022-11-18T08:41:30.180Z,97678.34
2022-11-18T08:44:00.313Z,97685.13
2022-11-18T08:46:29.073Z,97678.34
2022-11-18T08:48:57.777Z,97683.91
2022-11-18T08:51:26.955Z,97687.06
2022-11-18T08:53:55.668Z,97694.09
2022-11-18T08:56:26.009Z,97693.63
2022-11-18T08:58:54.875Z,97690.44
2022-11-18T09:01:24.924Z,97695.22
2022-11-18T09:03:53.672Z,97697.81
2022-11-18T09:06:24.748Z,97695.31
2022-11-18T09:08:53.961Z,97699.19
2022-11-18T09:11:24.698Z,97708.91
2022-11-18T09:16:44.420Z,97709.59
2022-11-18T09:22:02.562Z,97716.63
2022-11-18T09:24:31.294Z,97712.66
2022-11-18T09:27:00.039Z,97718.22
2022-11-18T09:29:28.684Z,97717.19
2022-11-18T09:32:01.875Z,97722.28
2022-11-18T09:34:30.887Z,97723.09
2022-11-18T09:37:00.132Z,97722.06
2022-11-18T09:39:28.799Z,97727.06
2022-11-18T09:42:03.052Z,97722.38
2022-11-18T09:48:19.658Z,97733.59
2022-11-18T09:50:50.167Z,97737.25
2022-11-18T09:53:21.281Z,97734.41
2022-11-18T09:55:51.613Z,97742.00
2022-11-18T09:58:24.162Z,97738.25
2022-11-18T10:00:52.905Z,97744.38
2022-11-18T10:03:27.657Z,97753.44
2022-11-18T10:05:59.744Z,97757.63
2022-11-18T10:08:30.104Z,97749.00
2022-11-18T10:11:04.734Z,97754.00
2022-11-18T10:13:43.451Z,97753.88
2022-11-18T10:16:24.218Z,97749.13
2022-11-18T10:19:01.016Z,97757.28
2022-11-18T10:21:39.160Z,97760.47
2022-11-18T10:24:13.267Z,97759.66
2022-11-18T10:26:42.679Z,97758.09
2022-11-18T10:29:11.547Z,97758.75
2022-11-18T10:31:41.072Z,97761.13
2022-11-18T10:34:14.897Z,97765.09
2022-11-18T10:36:43.693Z,97764.28
2022-11-18T10:39:14.608Z,97759.66
2022-11-18T10:41:47.008Z,97768.16
2022-11-18T10:44:30.149Z,97762.72
2022-11-18T10:47:17.034Z,97769.06
2022-11-18T10:49:47.049Z,97765.88
2022-11-18T10:52:16.280Z,97768.25
2022-11-18T10:54:44.927Z,97763.75
2022-11-18T10:57:19.972Z,97760.09
2022-11-18T10:59:52.076Z,97760.97
2022-11-18T11:02:22.316Z,97760.22
2022-11-18T11:04:53.178Z,97761.47
2022-11-18T11:07:27.119Z,97767.28
2022-11-18T11:10:04.044Z,97768.75
2022-11-18T11:12:33.753Z,97761.63
2022-11-18T11:15:05.386Z,97767.56
2022-11-18T11:17:36.817Z,97778.09
2022-11-18T11:20:13.939Z,97771.06
2022-11-18T11:22:42.811Z,97769.50
2022-11-18T11:25:14.281Z,97766.09
2022-11-18T11:30:46.633Z,97772.91
2022-11-18T11:33:31.996Z,97780.47
2022-11-18T11:36:24.235Z,97780.25
2022-11-18T11:39:18.736Z,97798.06
2022-11-18T11:41:54.155Z,97786.84
2022-11-18T11:44:31.352Z,97789.13
2022-11-18T11:47:25.671Z,97782.75
2022-11-18T11:49:57.749Z,97781.69
2022-11-18T11:52:34.519Z,97786.31
2022-11-18T11:55:13.659Z,97786.53
2022-11-18T11:58:01.487Z,97790.16
2022-11-18T12:00:32.639Z,97795.69
2022-11-18T12:03:08.490Z,97793.78
2022-11-18T12:05:39.417Z,97789.00
2022-11-18T12:08:14.113Z,97791.28
2022-11-18T12:10:46.199Z,97791.72
2022-11-18T12:13:36.327Z,97801.13
2022-11-18T12:16:16.384Z,97797.00
2022-11-18T12:18:49.024Z,97794.03
2022-11-18T12:21:50.743Z,97796.22
2022-11-18T12:24:37.671Z,97796.94
2022-11-18T12:27:12.243Z,97794.09
2022-11-18T12:29:44.446Z,97796.50
2022-11-18T12:32:27.395Z,97794.38
2022-11-18T12:35:01.202Z,97802.97
2022-11-18T12:37:43.849Z,97800.41
2022-11-18T12:40:44.807Z,97813.38
2022-11-18T12:44:05.678Z,97817.22
2022-11-18T12:46:58.623Z,97814.97
2022-11-18T12:50:10.180Z,97817.91
2022-11-18T12:52:53.676Z,97822.91
2022-11-18T12:55:27.220Z,97823.91
2022-11-18T12:57:55.867Z,97821.28
2022-11-18T13:00:52.166Z,97819.72
2022-11-18T13:03:26.127Z,97815.53
2022-11-18T13:06:01.580Z,97816.53
2022-11-18T13:08:30.503Z,97820.16
2022-11-18T13:11:27.155Z,97815.97
2022-11-18T13:14:10.140Z,97814.94
2022-11-18T13:16:56.580Z,97827.97
2022-11-18T13:19:25.980Z,97832.88
2022-11-18T13:22:13.582Z,97824.25
2022-11-18T13:24:47.026Z,97828.56
2022-11-18T13:27:28.469Z,97824.50
2022-11-18T13:30:03.116Z,97825.06
2022-11-18T13:32:31.927Z,97826.78
2022-11-18T13:35:11.348Z,97818.50
2022-11-18T13:37:51.318Z,97818.69
2022-11-18T13:40:21.739Z,97820.84
2022-11-18T13:42:51.991Z,97819.91
2022-11-18T13:45:21.105Z,97819.03
2022-11-18T13:47:52.235Z,97811.91
2022-11-18T13:50:25.797Z,97820.94
2022-11-18T13:53:02.537Z,97829.00
2022-11-18T13:55:34.813Z,97829.53
2022-11-18T13:58:06.712Z,97836.34
2022-11-18T14:00:36.858Z,97837.38
2022-11-18T14:03:12.454Z,97837.94
2022-11-18T14:05:41.344Z,97842.72
2022-11-18T14:08:24.512Z,97839.41
2022-11-18T14:10:53.681Z,97839.41
2022-11-18T14:13:27.077Z,97841.09
2022-11-18T14:15:57.008Z,97840.94
2022-11-18T14:18:31.661Z,97836.31
2022-11-18T14:21:01.521Z,97836.19
2022-11-18T14:23:31.985Z,97839.81
2022-11-18T14:26:02.718Z,97847.00
2022-11-18T14:28:34.471Z,97842.16
2022-11-18T14:31:07.272Z,97849.97
2022-11-18T14:33:37.016Z,97843.16
2022-11-18T14:36:12.003Z,97848.28
2022-11-18T14:41:50.477Z,97849.75
2022-11-18T14:44:22.516Z,97852.25
2022-11-18T14:46:53.572Z,97854.94
2022-11-18T14:49:23.790Z,97865.16
2022-11-18T14:51:53.219Z,97868.69
2022-11-18T14:54:26.530Z,97867.56
2022-11-18T14:56:58.988Z,97871.66
2022-11-18T14:59:29.139Z,97874.38
2022-11-18T15:01:58.551Z,97893.88
2022-11-18T15:04:27.379Z,97884.59
2022-11-18T15:06:56.170Z,97877.22
2022-11-18T15:09:25.009Z,97878.47
2022-11-18T15:11:53.644Z,97884.13
2022-11-18T15:14:22.304Z,97879.94
2022-11-18T15:16:52.368Z,97893.44
2022-11-18T15:19:21.037Z,97895.81
2022-11-18T15:21:49.720Z,97903.50
2022-11-18T15:24:18.538Z,97901.78
2022-11-18T15:26:48.706Z,97916.84
2022-11-18T15:29:18.870Z,97908.47
2022-11-18T15:31:47.591Z,97912.88
2022-11-18T15:34:19.981Z,97918.19
2022-11-18T15:36:49.479Z,97917.41
2022-11-18T15:39:18.185Z,97916.03
2022-11-18T15:41:46.866Z,97920.22
2022-11-18T15:44:15.924Z,97927.69
2022-11-18T15:46:45.416Z,97928.72
2022-11-18T15:49:15.357Z,97930.88
2022-11-18T15:51:45.349Z,97929.84
2022-11-18T15:54:14.596Z,97928.47
2022-11-18T15:56:43.289Z,97928.72
2022-11-18T15:59:13.069Z,97928.72
2022-11-18T16:01:43.360Z,97926.56
2022-11-18T16:04:14.267Z,97925.78
2022-11-18T16:06:44.145Z,97929.16
2022-11-18T16:09:16.494Z,97940.59
2022-11-18T16:12:02.723Z,97940.13
2022-11-18T16:14:31.443Z,97934.72
2022-11-18T16:17:00.282Z,97932.91
2022-11-18T16:19:33.272Z,97945.50
2022-11-18T16:22:01.991Z,97944.13
2022-11-18T16:24:31.971Z,97945.94
2022-11-18T16:27:00.533Z,97948.19
2022-11-18T16:29:29.121Z,97947.41
2022-11-18T16:31:57.733Z,97947.97
2022-11-18T16:34:27.714Z,97942.97
2022-11-18T16:36:58.083Z,97938.44
2022-11-18T16:39:28.525Z,97942.63
2022-11-18T16:42:06.878Z,97945.25
2022-11-18T16:44:36.597Z,97948.53
2022-11-18T16:47:12.423Z,97956.44
2022-11-18T16:49:43.879Z,97956.91
2022-11-18T16:52:12.559Z,97953.97
2022-11-18T16:54:45.305Z,97956.34
2022-11-18T16:57:16.281Z,97963.34
2022-11-18T16:59:44.935Z,97965.72
2022-11-18T17:02:14.216Z,97964.94
2022-11-18T17:04:42.947Z,97968.56
2022-11-18T17:07:11.608Z,97970.28
2022-11-18T17:09:40.312Z,97966.88
2022-11-18T17:12:09.291Z,97979.91
2022-11-18T17:14:40.191Z,97984.88
2022-11-18T17:17:09.147Z,97981.72
2022-11-18T17:19:37.847Z,97994.53
2022-11-18T17:22:06.518Z,97987.38
2022-11-18T17:24:35.180Z,97987.38
2022-11-18T17:27:03.858Z,97995.66
2022-11-18T17:29:32.937Z,97999.97
2022-11-18T17:32:02.978Z,98000.53
2022-11-18T17:34:31.563Z,98007.91
2022-11-18T17:37:06.266Z,98010.66
2022-11-18T17:39:35.548Z,98013.03
2022-11-18T17:42:17.748Z,98017.25
2022-11-18T17:44:46.781Z,98014.25
2022-11-18T17:47:16.834Z,98014.94
2022-11-18T17:49:45.765Z,98014.16
2022-11-18T17:52:14.413Z,98009.38
2022-11-18T17:54:42.989Z,98014.59
2022-11-18T17:57:11.848Z,98015.72
2022-11-18T17:59:40.495Z,98016.16
2022-11-18T18:02:10.700Z,98011.19
2022-11-18T18:04:40.681Z,98014.22
2022-11-18T18:07:09.399Z,98013.44
2022-11-18T18:09:38.222Z,98010.03
2022-11-18T18:12:31.078Z,98022.59
2022-11-18T18:14:58.684Z,98019.22
2022-11-18T18:17:27.291Z,98022.81
2022-11-18T18:19:57.305Z,98021.78
2022-11-18T18:22:25.980Z,98032.69
2022-11-18T18:24:54.601Z,98034.16
2022-11-18T18:27:23.222Z,98032.31
2022-11-18T18:29:52.527Z,98038.13
2022-11-18T18:32:21.095Z,98034.28
2022-11-18T18:34:49.752Z,98041.06
2022-11-18T18:37:19.709Z,98046.72
2022-11-18T18:39:48.368Z,98051.16
2022-11-18T18:42:17.015Z,98051.38
2022-11-18T18:45:03.299Z,98052.38
2022-11-18T18:47:31.978Z,98054.84
2022-11-18T18:50:00.618Z,98055.28
2022-11-18T18:52:31.708Z,98057.53
2022-11-18T18:55:00.364Z,98060.72
2022-11-18T18:57:30.219Z,98056.50
2022-11-18T18:59:58.870Z,98067.75
2022-11-18T19:02:27.463Z,98072.13
2022-11-18T19:04:56.134Z,98067.16
2022-11-18T19:07:27.830Z,98059.56
2022-11-18T19:09:57.853Z,98070.56
2022-11-18T19:12:45.780Z,98068.41
2022-11-18T19:15:16.607Z,98069.97
2022-11-18T19:17:45.992Z,98069.47
2022-11-18T19:20:40.680Z,98074.34
2022-11-18T19:23:11.020Z,98078.44
2022-11-18T19:25:41.118Z,98074.63
2022-11-18T19:28:11.371Z,98065.00
2022-11-18T19:30:40.080Z,98078.00
2022-11-18T19:33:08.713Z,98084.22
2022-11-18T19:35:38.171Z,98082.06
2022-11-18T19:38:06.804Z,98084.53
2022-11-18T19:40:35.972Z,98091.47
2022-11-18T19:43:05.914Z,98089.09
2022-11-18T19:45:34.535Z,98094.50
2022-11-18T19:48:04.525Z,98082.88
2022-11-18T19:50:33.184Z,98083.66
2022-11-18T19:53:22.521Z,98088.31
2022-11-18T19:55:54.972Z,98092.69
2022-11-18T19:58:25.071Z,98091.31
2022-11-18T20:00:54.054Z,98089.97
2022-11-18T20:03:22.748Z,98090.31
2022-11-18T20:05:54.341Z,98087.25
2022-11-18T20:08:24.639Z,98086.91
2022-11-18T20:10:54.218Z,98084.66
2022-11-18T20:13:22.889Z,98084.44
2022-11-18T20:15:52.973Z,98076.50
2022-11-18T20:18:23.123Z,98073.25
2022-11-18T20:20:51.764Z,98057.31
2022-11-18T20:23:20.522Z,98073.69
2022-11-18T20:25:49.177Z,98079.31
2022-11-18T20:28:18.272Z,98083.72
2022-11-18T20:30:47.668Z,98085.31
2022-11-18T20:33:17.638Z,98091.13
2022-11-18T20:35:46.284Z,98089.13
2022-11-18T20:38:14.923Z,98086.91
2022-11-18T20:40:43.571Z,98094.50
2022-11-18T20:43:15.561Z,98088.13
2022-11-18T20:45:44.783Z,98093.34
2022-11-18T20:48:14.129Z,98089.56
2022-11-18T20:50:44.137Z,98096.16
2022-11-18T20:53:12.743Z,98094.50
2022-11-18T20:55:41.437Z,98092.91
2022-11-18T20:58:10.121Z,98098.72
2022-11-18T21:00:38.742Z,98107.25
2022-11-18T21:03:07.414Z,98102.44
2022-11-18T21:05:36.068Z,98112.53
2022-11-18T21:08:06.235Z,98113.53
2022-11-18T21:10:35.535Z,98114.56
2022-11-18T21:13:36.517Z,98107.53
2022-11-18T21:16:05.580Z,98117.78
2022-11-18T21:18:34.181Z,98120.81
2022-11-18T21:21:20.143Z,98126.91
2022-11-18T21:23:50.083Z,98122.47
2022-11-18T21:26:18.675Z,98119.91
2022-11-18T21:28:48.370Z,98121.09
2022-11-18T21:31:20.640Z,98116.69
2022-11-18T21:33:52.358Z,98127.91
2022-11-18T21:36:21.837Z,98119.50
2022-11-18T21:38:51.816Z,98118.91
2022-11-18T21:41:20.864Z,98120.72
2022-11-18T21:44:06.313Z,98114.16
2022-11-18T21:46:35.857Z,98124.13
2022-11-18T21:49:04.896Z,98120.66
2022-11-18T21:51:34.647Z,98110.47
2022-11-18T21:54:05.127Z,98111.72
2022-11-18T21:56:33.799Z,98118.13
2022-11-18T21:59:03.130Z,98119.13
2022-11-18T22:01:33.159Z,98125.00
2022-11-18T22:04:03.257Z,98126.78
2022-11-18T22:06:34.260Z,98127.16
2022-11-18T22:09:06.037Z,98124.16
2022-11-18T22:11:34.764Z,98132.78
2022-11-18T22:14:04.439Z,98127.41
2022-11-18T22:16:33.084Z,98128.84
2022-11-18T22:19:07.865Z,98132.06
2022-11-18T22:21:36.873Z,98135.66
2022-11-18T22:24:07.840Z,98129.44
2022-11-18T22:26:36.422Z,98138.44
2022-11-18T22:29:05.223Z,98136.03
2022-11-18T22:31:34.908Z,98137.63
2022-11-18T22:34:03.544Z,98132.19
2022-11-18T22:36:33.240Z,98140.44
2022-11-18T22:39:02.142Z,98141.44
2022-11-18T22:41:49.500Z,98146.25
2022-11-18T22:44:18.656Z,98146.47
2022-11-18T22:46:47.359Z,98140.28
2022-11-18T22:49:15.956Z,98149.66
2022-11-18T22:51:44.530Z,98153.53
2022-11-18T22:57:03.216Z,98142.16
2022-11-18T22:59:31.819Z,98144.53
2022-11-18T23:02:01.636Z,98151.31
2022-11-18T23:04:30.249Z,98148.34
2022-11-18T23:06:58.965Z,98155.94
2022-11-18T23:09:27.779Z,98154.94
2022-11-18T23:12:13.836Z,98157.34
2022-11-18T23:14:44.092Z,98152.56
2022-11-18T23:17:12.780Z,98155.72
2022-11-18T23:19:43.907Z,98152.69
2022-11-18T23:22:13.071Z,98153.31
2022-11-18T23:24:41.704Z,98149.88
2022-11-18T23:27:10.506Z,98152.13
2022-11-18T23:29:39.140Z,98155.31
2022-11-18T23:32:09.112Z,98149.66
2022-11-18T23:34:37.794Z,98151.28
2022-11-18T23:37:06.453Z,98144.13
2022-11-18T23:39:36.315Z,98145.13
2022-11-18T23:42:05.176Z,98143.72
2022-11-18T23:44:46.111Z,98146.13
2022-11-18T23:47:16.098Z,98143.13
2022-11-18T23:49:44.720Z,98149.75
2022-11-18T23:52:14.811Z,98152.56
2022-11-18T23:54:43.427Z,98148.94
2022-11-18T23:57:12.051Z,98154.94
2022-11-18T23:59:40.628Z,98154.13
